sensor_id;sensor_type;location;lat;lon;timestamp;temperature;humidity
67354;SHT30;54238;52.278;21.056;2023-11-19T00:01:40;1.95;79.94
67354;SHT30;54238;52.278;21.056;2023-11-19T00:04:09;1.97;79.78
67354;SHT30;54238;52.278;21.056;2023-11-19T00:06:40;1.98;79.61
67354;SHT30;54238;52.278;21.056;2023-11-19T00:09:07;1.99;79.50
67354;SHT30;54238;52.278;21.056;2023-11-19T00:11:36;1.98;79.39
67354;SHT30;54238;52.278;21.056;2023-11-19T00:14:05;2.00;79.49
67354;SHT30;54238;52.278;21.056;2023-11-19T00:16:37;2.02;79.46
67354;SHT30;54238;52.278;21.056;2023-11-19T00:19:06;2.01;79.31
67354;SHT30;54238;52.278;21.056;2023-11-19T00:21:35;1.96;79.16
67354;SHT30;54238;52.278;21.056;2023-11-19T00:24:09;1.94;79.37
67354;SHT30;54238;52.278;21.056;2023-11-19T00:26:40;1.94;79.39
67354;SHT30;54238;52.278;21.056;2023-11-19T00:29:10;1.96;79.50
67354;SHT30;54238;52.278;21.056;2023-11-19T00:31:37;2.00;79.52
67354;SHT30;54238;52.278;21.056;2023-11-19T00:34:10;2.04;79.43
67354;SHT30;54238;52.278;21.056;2023-11-19T00:36:40;2.04;79.25
67354;SHT30;54238;52.278;21.056;2023-11-19T00:39:09;2.06;79.30
67354;SHT30;54238;52.278;21.056;2023-11-19T00:41:38;2.04;79.22
67354;SHT30;54238;52.278;21.056;2023-11-19T00:44:10;2.06;79.50
67354;SHT30;54238;52.278;21.056;2023-11-19T00:46:41;2.07;79.32
67354;SHT30;54238;52.278;21.056;2023-11-19T00:49:15;2.03;79.30
67354;SHT30;54238;52.278;21.056;2023-11-19T00:51:42;1.98;79.20
67354;SHT30;54238;52.278;21.056;2023-11-19T00:54:14;2.01;79.46
67354;SHT30;54238;52.278;21.056;2023-11-19T00:56:43;2.01;79.39
67354;SHT30;54238;52.278;21.056;2023-11-19T00:59:12;1.97;79.22
67354;SHT30;54238;52.278;21.056;2023-11-19T01:01:43;1.92;79.25
67354;SHT30;54238;52.278;21.056;2023-11-19T01:04:14;1.92;79.49
67354;SHT30;54238;52.278;21.056;2023-11-19T01:06:44;1.95;79.77
67354;SHT30;54238;52.278;21.056;2023-11-19T01:09:13;1.97;79.68
67354;SHT30;54238;52.278;21.056;2023-11-19T01:11:43;2.00;79.54
67354;SHT30;54238;52.278;21.056;2023-11-19T01:14:12;2.04;79.54
67354;SHT30;54238;52.278;21.056;2023-11-19T01:16:39;2.09;79.50
67354;SHT30;54238;52.278;21.056;2023-11-19T01:19:07;2.10;79.17
67354;SHT30;54238;52.278;21.056;2023-11-19T01:21:34;2.09;79.14
67354;SHT30;54238;52.278;21.056;2023-11-19T01:24:03;2.11;79.14
67354;SHT30;54238;52.278;21.056;2023-11-19T01:26:35;2.10;79.02
67354;SHT30;54238;52.278;21.056;2023-11-19T01:29:14;2.11;79.18
67354;SHT30;54238;52.278;21.056;2023-11-19T01:31:46;2.11;79.11
67354;SHT30;54238;52.278;21.056;2023-11-19T01:34:15;2.12;79.14
67354;SHT30;54238;52.278;21.056;2023-11-19T01:36:44;2.14;79.14
67354;SHT30;54238;52.278;21.056;2023-11-19T01:39:15;2.13;78.94
67354;SHT30;54238;52.278;21.056;2023-11-19T01:41:46;2.11;78.97
67354;SHT30;54238;52.278;21.056;2023-11-19T01:44:15;2.09;78.90
67354;SHT30;54238;52.278;21.056;2023-11-19T01:46:47;2.06;78.90
67354;SHT30;54238;52.278;21.056;2023-11-19T01:49:19;2.05;78.91
67354;SHT30;54238;52.278;21.056;2023-11-19T01:51:49;2.02;79.10
67354;SHT30;54238;52.278;21.056;2023-11-19T01:54:21;2.03;79.34
67354;SHT30;54238;52.278;21.056;2023-11-19T01:56:57;2.05;79.36
67354;SHT30;54238;52.278;21.056;2023-11-19T01:59:31;2.07;79.30
67354;SHT30;54238;52.278;21.056;2023-11-19T02:01:58;2.08;79.16
67354;SHT30;54238;52.278;21.056;2023-11-19T02:04:25;2.07;79.10
67354;SHT30;54238;52.278;21.056;2023-11-19T02:06:54;2.08;79.10
67354;SHT30;54238;52.278;21.056;2023-11-19T02:09:30;2.07;79.02
67354;SHT30;54238;52.278;21.056;2023-11-19T02:12:02;2.07;79.11
67354;SHT30;54238;52.278;21.056;2023-11-19T02:14:32;2.08;79.20
67354;SHT30;54238;52.278;21.056;2023-11-19T02:16:59;2.07;79.11
67354;SHT30;54238;52.278;21.056;2023-11-19T02:19:34;2.05;79.11
67354;SHT30;54238;52.278;21.056;2023-11-19T02:22:04;2.06;79.20
67354;SHT30;54238;52.278;21.056;2023-11-19T02:24:34;2.07;79.15
67354;SHT30;54238;52.278;21.056;2023-11-19T02:27:22;2.07;79.12
67354;SHT30;54238;52.278;21.056;2023-11-19T02:30:18;2.07;79.02
67354;SHT30;54238;52.278;21.056;2023-11-19T02:32:45;2.06;79.03
67354;SHT30;54238;52.278;21.056;2023-11-19T02:35:12;2.06;79.07
67354;SHT30;54238;52.278;21.056;2023-11-19T02:37:42;2.08;79.10
67354;SHT30;54238;52.278;21.056;2023-11-19T02:40:08;2.09;79.17
67354;SHT30;54238;52.278;21.056;2023-11-19T02:42:40;2.09;79.19
67354;SHT30;54238;52.278;21.056;2023-11-19T02:45:12;2.09;79.20
67354;SHT30;54238;52.278;21.056;2023-11-19T02:47:43;2.11;79.22
67354;SHT30;54238;52.278;21.056;2023-11-19T02:50:15;2.11;79.19
67354;SHT30;54238;52.278;21.056;2023-11-19T02:52:42;2.11;79.11
67354;SHT30;54238;52.278;21.056;2023-11-19T02:55:12;2.10;79.12
67354;SHT30;54238;52.278;21.056;2023-11-19T02:57:46;2.09;79.15
67354;SHT30;54238;52.278;21.056;2023-11-19T03:00:16;2.10;79.27
67354;SHT30;54238;52.278;21.056;2023-11-19T03:02:51;2.11;79.27
67354;SHT30;54238;52.278;21.056;2023-11-19T03:05:26;2.12;79.22
67354;SHT30;54238;52.278;21.056;2023-11-19T03:07:57;2.13;79.18
67354;SHT30;54238;52.278;21.056;2023-11-19T03:10:28;2.13;79.19
67354;SHT30;54238;52.278;21.056;2023-11-19T03:13:03;2.17;79.30
67354;SHT30;54238;52.278;21.056;2023-11-19T03:15:35;2.19;79.30
67354;SHT30;54238;52.278;21.056;2023-11-19T03:18:05;2.20;79.19
67354;SHT30;54238;52.278;21.056;2023-11-19T03:20:34;2.19;79.17
67354;SHT30;54238;52.278;21.056;2023-11-19T03:23:01;2.20;79.21
67354;SHT30;54238;52.278;21.056;2023-11-19T03:25:28;2.22;79.24
67354;SHT30;54238;52.278;21.056;2023-11-19T03:28:03;2.23;79.20
67354;SHT30;54238;52.278;21.056;2023-11-19T03:30:33;2.22;79.20
67354;SHT30;54238;52.278;21.056;2023-11-19T03:33:00;2.22;79.31
67354;SHT30;54238;52.278;21.056;2023-11-19T03:35:31;2.24;79.39
67354;SHT30;54238;52.278;21.056;2023-11-19T03:38:02;2.26;79.27
67354;SHT30;54238;52.278;21.056;2023-11-19T03:40:32;2.23;79.15
67354;SHT30;54238;52.278;21.056;2023-11-19T03:43:03;2.22;79.22
67354;SHT30;54238;52.278;21.056;2023-11-19T03:45:35;2.19;79.28
67354;SHT30;54238;52.278;21.056;2023-11-19T03:48:07;2.20;79.44
67354;SHT30;54238;52.278;21.056;2023-11-19T03:50:34;2.23;79.42
67354;SHT30;54238;52.278;21.056;2023-11-19T03:53:05;2.20;79.31
67354;SHT30;54238;52.278;21.056;2023-11-19T03:55:35;2.20;79.46
67354;SHT30;54238;52.278;21.056;2023-11-19T03:58:04;2.19;79.41
67354;SHT30;54238;52.278;21.056;2023-11-19T04:00:32;2.17;79.45
67354;SHT30;54238;52.278;21.056;2023-11-19T04:03:01;2.19;79.64
67354;SHT30;54238;52.278;21.056;2023-11-19T04:05:36;2.22;79.78
67354;SHT30;54238;52.278;21.056;2023-11-19T04:08:05;2.25;79.78
67354;SHT30;54238;52.278;21.056;2023-11-19T04:10:37;2.26;79.68
67354;SHT30;54238;52.278;21.056;2023-11-19T04:13:06;2.26;79.68
67354;SHT30;54238;52.278;21.056;2023-11-19T04:15:38;2.27;79.69
67354;SHT30;54238;52.278;21.056;2023-11-19T04:18:05;2.26;79.66
67354;SHT30;54238;52.278;21.056;2023-11-19T04:20:32;2.27;79.77
67354;SHT30;54238;52.278;21.056;2023-11-19T04:23:03;2.28;79.81
67354;SHT30;54238;52.278;21.056;2023-11-19T04:25:32;2.29;79.81
67354;SHT30;54238;52.278;21.056;2023-11-19T04:28:04;2.29;79.92
67354;SHT30;54238;52.278;21.056;2023-11-19T04:30:33;2.31;80.02
67354;SHT30;54238;52.278;21.056;2023-11-19T04:33:09;2.31;79.93
67354;SHT30;54238;52.278;21.056;2023-11-19T04:35:41;2.30;79.93
67354;SHT30;54238;52.278;21.056;2023-11-19T04:38:12;2.31;79.90
67354;SHT30;54238;52.278;21.056;2023-11-19T04:40:44;2.28;79.80
67354;SHT30;54238;52.278;21.056;2023-11-19T04:43:11;2.27;79.80
67354;SHT30;54238;52.278;21.056;2023-11-19T04:45:43;2.24;79.77
67354;SHT30;54238;52.278;21.056;2023-11-19T04:48:11;2.24;79.87
67354;SHT30;54238;52.278;21.056;2023-11-19T04:50:39;2.24;79.97
67354;SHT30;54238;52.278;21.056;2023-11-19T04:53:06;2.24;79.95
67354;SHT30;54238;52.278;21.056;2023-11-19T04:55:37;2.23;79.90
67354;SHT30;54238;52.278;21.056;2023-11-19T04:58:08;2.22;79.82
67354;SHT30;54238;52.278;21.056;2023-11-19T05:00:42;2.23;79.89
67354;SHT30;54238;52.278;21.056;2023-11-19T05:03:12;2.22;79.80
67354;SHT30;54238;52.278;21.056;2023-11-19T05:05:38;2.22;79.85
67354;SHT30;54238;52.278;21.056;2023-11-19T05:08:08;2.20;79.78
67354;SHT30;54238;52.278;21.056;2023-11-19T05:10:35;2.20;79.88
67354;SHT30;54238;52.278;21.056;2023-11-19T05:13:03;2.20;79.84
67354;SHT30;54238;52.278;21.056;2023-11-19T05:15:30;2.18;79.80
67354;SHT30;54238;52.278;21.056;2023-11-19T05:17:59;2.16;79.82
67354;SHT30;54238;52.278;21.056;2023-11-19T05:20:27;2.15;79.86
67354;SHT30;54238;52.278;21.056;2023-11-19T05:22:57;2.14;79.84
67354;SHT30;54238;52.278;21.056;2023-11-19T05:25:28;2.15;79.95
67354;SHT30;54238;52.278;21.056;2023-11-19T05:27:55;2.15;79.93
67354;SHT30;54238;52.278;21.056;2023-11-19T05:30:24;2.13;79.80
67354;SHT30;54238;52.278;21.056;2023-11-19T05:32:51;2.11;79.88
67354;SHT30;54238;52.278;21.056;2023-11-19T05:35:22;2.10;79.99
67354;SHT30;54238;52.278;21.056;2023-11-19T05:37:54;2.09;79.92
67354;SHT30;54238;52.278;21.056;2023-11-19T05:40:28;2.07;79.89
67354;SHT30;54238;52.278;21.056;2023-11-19T05:42:55;2.06;80.00
67354;SHT30;54238;52.278;21.056;2023-11-19T05:45:27;2.07;80.06
67354;SHT30;54238;52.278;21.056;2023-11-19T05:47:58;2.06;80.03
67354;SHT30;54238;52.278;21.056;2023-11-19T05:50:30;2.07;80.11
67354;SHT30;54238;52.278;21.056;2023-11-19T05:53:00;2.06;80.10
67354;SHT30;54238;52.278;21.056;2023-11-19T05:55:37;2.07;80.19
67354;SHT30;54238;52.278;21.056;2023-11-19T05:58:12;2.08;80.18
67354;SHT30;54238;52.278;21.056;2023-11-19T06:00:42;2.08;80.10
67354;SHT30;54238;52.278;21.056;2023-11-19T06:03:09;2.08;80.05
67354;SHT30;54238;52.278;21.056;2023-11-19T06:05:36;2.08;80.04
67354;SHT30;54238;52.278;21.056;2023-11-19T06:08:10;2.07;80.10
67354;SHT30;54238;52.278;21.056;2023-11-19T06:10:38;2.07;80.06
67354;SHT30;54238;52.278;21.056;2023-11-19T06:13:10;2.07;80.10
67354;SHT30;54238;52.278;21.056;2023-11-19T06:15:42;2.08;80.10
67354;SHT30;54238;52.278;21.056;2023-11-19T06:18:12;2.07;80.15
67354;SHT30;54238;52.278;21.056;2023-11-19T06:20:40;2.08;80.17
67354;SHT30;54238;52.278;21.056;2023-11-19T06:23:08;2.09;80.13
67354;SHT30;54238;52.278;21.056;2023-11-19T06:25:40;2.09;80.10
67354;SHT30;54238;52.278;21.056;2023-11-19T06:28:11;2.09;80.15
67354;SHT30;54238;52.278;21.056;2023-11-19T06:30:41;2.11;80.22
67354;SHT30;54238;52.278;21.056;2023-11-19T06:33:12;2.14;80.19
67354;SHT30;54238;52.278;21.056;2023-11-19T06:35:44;2.18;80.08
67354;SHT30;54238;52.278;21.056;2023-11-19T06:38:14;2.18;79.92
67354;SHT30;54238;52.278;21.056;2023-11-19T06:40:41;2.19;79.87
67354;SHT30;54238;52.278;21.056;2023-11-19T06:43:13;2.19;79.86
67354;SHT30;54238;52.278;21.056;2023-11-19T06:45:46;2.21;79.84
67354;SHT30;54238;52.278;21.056;2023-11-19T06:48:13;2.21;79.81
67354;SHT30;54238;52.278;21.056;2023-11-19T06:50:42;2.22;79.80
67354;SHT30;54238;52.278;21.056;2023-11-19T06:53:09;2.24;79.78
67354;SHT30;54238;52.278;21.056;2023-11-19T06:55:39;2.26;79.58
67354;SHT30;54238;52.278;21.056;2023-11-19T06:58:11;2.24;79.29
67354;SHT30;54238;52.278;21.056;2023-11-19T07:00:41;2.25;79.20
67354;SHT30;54238;52.278;21.056;2023-11-19T07:03:09;2.27;79.07
67354;SHT30;54238;52.278;21.056;2023-11-19T07:05:36;2.27;78.99
67354;SHT30;54238;52.278;21.056;2023-11-19T07:08:06;2.27;78.84
67354;SHT30;54238;52.278;21.056;2023-11-19T07:10:38;2.28;78.66
67354;SHT30;54238;52.278;21.056;2023-11-19T07:13:10;2.31;78.66
67354;SHT30;54238;52.278;21.056;2023-11-19T07:15:37;2.33;78.45
67354;SHT30;54238;52.278;21.056;2023-11-19T07:18:04;2.32;78.28
67354;SHT30;54238;52.278;21.056;2023-11-19T07:20:38;2.30;78.21
67354;SHT30;54238;52.278;21.056;2023-11-19T07:23:07;2.29;78.00
67354;SHT30;54238;52.278;21.056;2023-11-19T07:25:36;2.26;77.69
67354;SHT30;54238;52.278;21.056;2023-11-19T07:28:03;2.25;77.82
67354;SHT30;54238;52.278;21.056;2023-11-19T07:30:33;2.26;77.88
67354;SHT30;54238;52.278;21.056;2023-11-19T07:32:59;2.26;77.86
67354;SHT30;54238;52.278;21.056;2023-11-19T07:35:35;2.27;77.76
67354;SHT30;54238;52.278;21.056;2023-11-19T07:38:04;2.25;77.53
67354;SHT30;54238;52.278;21.056;2023-11-19T07:40:34;2.21;77.42
67354;SHT30;54238;52.278;21.056;2023-11-19T07:43:03;2.20;77.54
67354;SHT30;54238;52.278;21.056;2023-11-19T07:45:35;2.16;77.45
67354;SHT30;54238;52.278;21.056;2023-11-19T07:48:05;2.13;77.54
67354;SHT30;54238;52.278;21.056;2023-11-19T07:50:33;2.11;77.63
67354;SHT30;54238;52.278;21.056;2023-11-19T07:53:02;2.09;77.69
67354;SHT30;54238;52.278;21.056;2023-11-19T07:55:33;2.07;77.60
67354;SHT30;54238;52.278;21.056;2023-11-19T07:58:05;2.04;77.63
67354;SHT30;54238;52.278;21.056;2023-11-19T08:00:37;2.05;77.84
67354;SHT30;54238;52.278;21.056;2023-11-19T08:03:07;2.11;77.92
67354;SHT30;54238;52.278;21.056;2023-11-19T08:05:37;2.14;77.63
67354;SHT30;54238;52.278;21.056;2023-11-19T08:08:09;2.16;77.58
67354;SHT30;54238;52.278;21.056;2023-11-19T08:10:36;2.22;77.61
67354;SHT30;54238;52.278;21.056;2023-11-19T08:13:04;2.27;77.39
67354;SHT30;54238;52.278;21.056;2023-11-19T08:15:34;2.31;77.26
67354;SHT30;54238;52.278;21.056;2023-11-19T08:18:03;2.35;77.20
67354;SHT30;54238;52.278;21.056;2023-11-19T08:20:36;2.39;77.12
67354;SHT30;54238;52.278;21.056;2023-11-19T08:23:03;2.42;77.09
67354;SHT30;54238;52.278;21.056;2023-11-19T08:25:35;2.46;76.92
67354;SHT30;54238;52.278;21.056;2023-11-19T08:28:04;2.51;76.94
67354;SHT30;54238;52.278;21.056;2023-11-19T08:30:31;2.59;76.93
67354;SHT30;54238;52.278;21.056;2023-11-19T08:32:58;2.65;76.72
67354;SHT30;54238;52.278;21.056;2023-11-19T08:35:29;2.69;76.49
67354;SHT30;54238;52.278;21.056;2023-11-19T08:37:59;2.70;76.43
67354;SHT30;54238;52.278;21.056;2023-11-19T08:40:28;2.73;76.38
67354;SHT30;54238;52.278;21.056;2023-11-19T08:43:00;2.77;76.57
67354;SHT30;54238;52.278;21.056;2023-11-19T08:45:27;2.84;76.55
67354;SHT30;54238;52.278;21.056;2023-11-19T08:47:55;2.94;76.31
67354;SHT30;54238;52.278;21.056;2023-11-19T08:50:22;3.01;76.15
67354;SHT30;54238;52.278;21.056;2023-11-19T08:52:51;3.06;75.91
67354;SHT30;54238;52.278;21.056;2023-11-19T08:55:21;3.09;75.78
67354;SHT30;54238;52.278;21.056;2023-11-19T08:57:50;3.11;75.65
67354;SHT30;54238;52.278;21.056;2023-11-19T09:00:19;3.11;75.61
67354;SHT30;54238;52.278;21.056;2023-11-19T09:02:51;3.13;75.54
67354;SHT30;54238;52.278;21.056;2023-11-19T09:05:18;3.14;75.39
67354;SHT30;54238;52.278;21.056;2023-11-19T09:07:47;3.14;75.31
67354;SHT30;54238;52.278;21.056;2023-11-19T09:10:16;3.15;75.11
67354;SHT30;54238;52.278;21.056;2023-11-19T09:12:49;3.18;75.03
67354;SHT30;54238;52.278;21.056;2023-11-19T09:15:16;3.20;74.85
67354;SHT30;54238;52.278;21.056;2023-11-19T09:17:48;3.19;74.84
67354;SHT30;54238;52.278;21.056;2023-11-19T09:20:17;3.21;75.01
67354;SHT30;54238;52.278;21.056;2023-11-19T09:22:47;3.26;75.17
67354;SHT30;54238;52.278;21.056;2023-11-19T09:25:21;3.31;74.93
67354;SHT30;54238;52.278;21.056;2023-11-19T09:27:47;3.30;74.83
67354;SHT30;54238;52.278;21.056;2023-11-19T09:30:19;3.26;74.73
67354;SHT30;54238;52.278;21.056;2023-11-19T09:32:49;3.25;74.71
67354;SHT30;54238;52.278;21.056;2023-11-19T09:35:16;3.23;74.73
67354;SHT30;54238;52.278;21.056;2023-11-19T09:37:43;3.24;74.74
67354;SHT30;54238;52.278;21.056;2023-11-19T09:40:12;3.25;74.71
67354;SHT30;54238;52.278;21.056;2023-11-19T09:42:44;3.22;74.71
67354;SHT30;54238;52.278;21.056;2023-11-19T09:45:15;3.17;74.69
67354;SHT30;54238;52.278;21.056;2023-11-19T09:47:48;3.10;74.74
67354;SHT30;54238;52.278;21.056;2023-11-19T09:50:27;3.03;75.02
67354;SHT30;54238;52.278;21.056;2023-11-19T09:53:00;3.01;75.22
67354;SHT30;54238;52.278;21.056;2023-11-19T09:55:30;3.02;75.32
67354;SHT30;54238;52.278;21.056;2023-11-19T09:58:03;3.02;75.45
67354;SHT30;54238;52.278;21.056;2023-11-19T10:00:34;3.03;75.60
67354;SHT30;54238;52.278;21.056;2023-11-19T10:03:05;3.02;75.73
67354;SHT30;54238;52.278;21.056;2023-11-19T10:05:43;3.04;75.75
67354;SHT30;54238;52.278;21.056;2023-11-19T10:08:14;3.06;75.76
67354;SHT30;54238;52.278;21.056;2023-11-19T10:10:44;3.06;75.73
67354;SHT30;54238;52.278;21.056;2023-11-19T10:13:17;3.06;75.68
67354;SHT30;54238;52.278;21.056;2023-11-19T10:15:47;3.05;75.76
67354;SHT30;54238;52.278;21.056;2023-11-19T10:18:26;3.07;75.89
67354;SHT30;54238;52.278;21.056;2023-11-19T10:20:58;3.07;75.78
67354;SHT30;54238;52.278;21.056;2023-11-19T10:23:29;3.08;75.87
67354;SHT30;54238;52.278;21.056;2023-11-19T10:26:14;3.07;75.72
67354;SHT30;54238;52.278;21.056;2023-11-19T10:28:48;3.07;75.86
67354;SHT30;54238;52.278;21.056;2023-11-19T10:31:18;3.08;75.86
67354;SHT30;54238;52.278;21.056;2023-11-19T10:33:53;3.07;76.00
67354;SHT30;54238;52.278;21.056;2023-11-19T10:36:22;3.07;75.95
67354;SHT30;54238;52.278;21.056;2023-11-19T10:39:10;3.09;75.87
67354;SHT30;54238;52.278;21.056;2023-11-19T10:41:39;3.10;75.85
67354;SHT30;54238;52.278;21.056;2023-11-19T10:44:09;3.10;75.93
67354;SHT30;54238;52.278;21.056;2023-11-19T10:46:39;3.11;75.97
67354;SHT30;54238;52.278;21.056;2023-11-19T10:49:10;3.12;75.88
67354;SHT30;54238;52.278;21.056;2023-11-19T10:51:44;3.14;75.87
67354;SHT30;54238;52.278;21.056;2023-11-19T10:54:20;3.16;75.88
67354;SHT30;54238;52.278;21.056;2023-11-19T10:56:52;3.18;75.89
67354;SHT30;54238;52.278;21.056;2023-11-19T10:59:28;3.18;75.87
67354;SHT30;54238;52.278;21.056;2023-11-19T11:02:03;3.17;75.95
67354;SHT30;54238;52.278;21.056;2023-11-19T11:04:39;3.15;75.98
67354;SHT30;54238;52.278;21.056;2023-11-19T11:07:11;3.11;75.97
67354;SHT30;54238;52.278;21.056;2023-11-19T11:09:43;3.11;76.15
67354;SHT30;54238;52.278;21.056;2023-11-19T11:12:18;3.13;76.30
67354;SHT30;54238;52.278;21.056;2023-11-19T11:14:54;3.13;76.29
67354;SHT30;54238;52.278;21.056;2023-11-19T11:17:24;3.13;76.25
67354;SHT30;54238;52.278;21.056;2023-11-19T11:19:55;3.12;76.25
67354;SHT30;54238;52.278;21.056;2023-11-19T11:22:27;3.12;76.09
67354;SHT30;54238;52.278;21.056;2023-11-19T11:25:19;3.11;76.02
67354;SHT30;54238;52.278;21.056;2023-11-19T11:31:08;3.07;76.35
67354;SHT30;54238;52.278;21.056;2023-11-19T11:36:36;3.03;76.41
67354;SHT30;54238;52.278;21.056;2023-11-19T11:39:32;2.99;76.56
67354;SHT30;54238;52.278;21.056;2023-11-19T11:58:05;2.97;76.65
67354;SHT30;54238;52.278;21.056;2023-11-19T12:00:33;2.94;76.71
67354;SHT30;54238;52.278;21.056;2023-11-19T12:03:07;2.94;76.74
67354;SHT30;54238;52.278;21.056;2023-11-19T12:05:38;2.92;76.86
67354;SHT30;54238;52.278;21.056;2023-11-19T12:08:14;2.90;76.82
67354;SHT30;54238;52.278;21.056;2023-11-19T12:10:50;2.90;77.01
67354;SHT30;54238;52.278;21.056;2023-11-19T12:13:29;2.91;77.04
67354;SHT30;54238;52.278;21.056;2023-11-19T12:16:14;2.91;77.13
67354;SHT30;54238;52.278;21.056;2023-11-19T12:18:43;2.88;77.10
67354;SHT30;54238;52.278;21.056;2023-11-19T12:21:11;2.88;77.26
67354;SHT30;54238;52.278;21.056;2023-11-19T12:23:56;2.88;77.25
67354;SHT30;54238;52.278;21.056;2023-11-19T12:26:33;2.88;77.28
67354;SHT30;54238;52.278;21.056;2023-11-19T12:29:02;2.90;77.28
67354;SHT30;54238;52.278;21.056;2023-11-19T12:31:30;2.93;77.26
67354;SHT30;54238;52.278;21.056;2023-11-19T12:34:05;2.94;77.20
67354;SHT30;54238;52.278;21.056;2023-11-19T12:36:36;2.94;77.08
67354;SHT30;54238;52.278;21.056;2023-11-19T12:39:03;2.93;76.97
67354;SHT30;54238;52.278;21.056;2023-11-19T12:41:35;2.92;76.90
67354;SHT30;54238;52.278;21.056;2023-11-19T12:44:19;2.92;76.90
67354;SHT30;54238;52.278;21.056;2023-11-19T12:47:05;2.95;76.92
67354;SHT30;54238;52.278;21.056;2023-11-19T12:49:40;2.96;76.85
67354;SHT30;54238;52.278;21.056;2023-11-19T12:52:21;2.96;76.73
67354;SHT30;54238;52.278;21.056;2023-11-19T12:54:56;2.98;76.74
67354;SHT30;54238;52.278;21.056;2023-11-19T12:57:39;2.98;76.81
67354;SHT30;54238;52.278;21.056;2023-11-19T13:00:19;3.01;76.97
67354;SHT30;54238;52.278;21.056;2023-11-19T13:02:52;3.00;77.11
67354;SHT30;54238;52.278;21.056;2023-11-19T13:08:07;2.99;77.10
67354;SHT30;54238;52.278;21.056;2023-11-19T13:13:18;2.92;77.28
67354;SHT30;54238;52.278;21.056;2023-11-19T13:15:45;2.90;77.39
67354;SHT30;54238;52.278;21.056;2023-11-19T13:18:16;2.88;77.51
67354;SHT30;54238;52.278;21.056;2023-11-19T13:20:45;2.89;77.60
67354;SHT30;54238;52.278;21.056;2023-11-19T13:23:12;2.86;77.70
67354;SHT30;54238;52.278;21.056;2023-11-19T13:25:42;2.85;77.80
67354;SHT30;54238;52.278;21.056;2023-11-19T13:28:12;2.85;77.90
67354;SHT30;54238;52.278;21.056;2023-11-19T13:30:39;2.85;77.98
67354;SHT30;54238;52.278;21.056;2023-11-19T13:33:11;2.84;78.14
67354;SHT30;54238;52.278;21.056;2023-11-19T13:35:40;2.82;78.14
67354;SHT30;54238;52.278;21.056;2023-11-19T13:38:11;2.80;78.27
67354;SHT30;54238;52.278;21.056;2023-11-19T13:40:41;2.80;78.40
67354;SHT30;54238;52.278;21.056;2023-11-19T13:43:10;2.78;78.50
67354;SHT30;54238;52.278;21.056;2023-11-19T13:45:38;2.77;78.70
67354;SHT30;54238;52.278;21.056;2023-11-19T13:48:05;2.75;78.72
67354;SHT30;54238;52.278;21.056;2023-11-19T13:50:34;2.71;78.83
67354;SHT30;54238;52.278;21.056;2023-11-19T13:53:01;2.70;78.97
67354;SHT30;54238;52.278;21.056;2023-11-19T13:55:28;2.66;79.03
67354;SHT30;54238;52.278;21.056;2023-11-19T13:58:00;2.63;79.24
67354;SHT30;54238;52.278;21.056;2023-11-19T14:00:27;2.62;79.35
67354;SHT30;54238;52.278;21.056;2023-11-19T14:02:59;2.62;79.46
67354;SHT30;54238;52.278;21.056;2023-11-19T14:05:26;2.60;79.52
67354;SHT30;54238;52.278;21.056;2023-11-19T14:07:56;2.58;79.58
67354;SHT30;54238;52.278;21.056;2023-11-19T14:10:24;2.57;79.80
67354;SHT30;54238;52.278;21.056;2023-11-19T14:12:51;2.58;79.92
67354;SHT30;54238;52.278;21.056;2023-11-19T14:15:25;2.58;80.20
67354;SHT30;54238;52.278;21.056;2023-11-19T14:17:52;2.62;80.33
67354;SHT30;54238;52.278;21.056;2023-11-19T14:20:21;2.63;80.29
67354;SHT30;54238;52.278;21.056;2023-11-19T14:22:51;2.64;80.11
67354;SHT30;54238;52.278;21.056;2023-11-19T14:25:20;2.63;79.97
67354;SHT30;54238;52.278;21.056;2023-11-19T14:27:52;2.61;80.02
67354;SHT30;54238;52.278;21.056;2023-11-19T14:30:24;2.61;80.02
67354;SHT30;54238;52.278;21.056;2023-11-19T14:32:53;2.59;80.18
67354;SHT30;54238;52.278;21.056;2023-11-19T14:35:23;2.57;80.25
67354;SHT30;54238;52.278;21.056;2023-11-19T14:37:51;2.56;80.20
67354;SHT30;54238;52.278;21.056;2023-11-19T14:40:18;2.56;80.23
67354;SHT30;54238;52.278;21.056;2023-11-19T14:42:45;2.56;80.28
67354;SHT30;54238;52.278;21.056;2023-11-19T14:45:17;2.54;80.33
67354;SHT30;54238;52.278;21.056;2023-11-19T14:47:48;2.52;80.42
67354;SHT30;54238;52.278;21.056;2023-11-19T14:50:16;2.51;80.42
67354;SHT30;54238;52.278;21.056;2023-11-19T14:52:48;2.49;80.52
67354;SHT30;54238;52.278;21.056;2023-11-19T14:55:20;2.48;80.57
67354;SHT30;54238;52.278;21.056;2023-11-19T14:57:53;2.47;80.68
67354;SHT30;54238;52.278;21.056;2023-11-19T15:00:20;2.46;80.73
67354;SHT30;54238;52.278;21.056;2023-11-19T15:02:47;2.45;80.71
67354;SHT30;54238;52.278;21.056;2023-11-19T15:05:17;2.45;80.83
67354;SHT30;54238;52.278;21.056;2023-11-19T15:07:43;2.44;80.81
67354;SHT30;54238;52.278;21.056;2023-11-19T15:10:18;2.44;80.85
67354;SHT30;54238;52.278;21.056;2023-11-19T15:12:45;2.43;80.83
67354;SHT30;54238;52.278;21.056;2023-11-19T15:15:15;2.42;80.96
67354;SHT30;54238;52.278;21.056;2023-11-19T15:17:45;2.43;80.92
67354;SHT30;54238;52.278;21.056;2023-11-19T15:20:12;2.43;80.99
67354;SHT30;54238;52.278;21.056;2023-11-19T15:22:44;2.42;81.03
67354;SHT30;54238;52.278;21.056;2023-11-19T15:25:16;2.43;81.08
67354;SHT30;54238;52.278;21.056;2023-11-19T15:27:42;2.42;81.13
67354;SHT30;54238;52.278;21.056;2023-11-19T15:30:12;2.42;81.15
67354;SHT30;54238;52.278;21.056;2023-11-19T15:32:40;2.41;81.16
67354;SHT30;54238;52.278;21.056;2023-11-19T15:35:12;2.41;81.33
67354;SHT30;54238;52.278;21.056;2023-11-19T15:37:42;2.40;81.29
67354;SHT30;54238;52.278;21.056;2023-11-19T15:40:11;2.39;81.32
67354;SHT30;54238;52.278;21.056;2023-11-19T15:42:43;2.36;81.34
67354;SHT30;54238;52.278;21.056;2023-11-19T15:45:12;2.34;81.46
67354;SHT30;54238;52.278;21.056;2023-11-19T15:47:46;2.36;81.57
67354;SHT30;54238;52.278;21.056;2023-11-19T15:50:19;2.37;81.59
67354;SHT30;54238;52.278;21.056;2023-11-19T15:52:45;2.37;81.56
67354;SHT30;54238;52.278;21.056;2023-11-19T15:55:15;2.38;81.60
67354;SHT30;54238;52.278;21.056;2023-11-19T15:57:45;2.38;81.58
67354;SHT30;54238;52.278;21.056;2023-11-19T16:00:17;2.38;81.62
67354;SHT30;54238;52.278;21.056;2023-11-19T16:02:50;2.38;81.64
67354;SHT30;54238;52.278;21.056;2023-11-19T16:05:17;2.40;81.58
67354;SHT30;54238;52.278;21.056;2023-11-19T16:07:44;2.41;81.55
67354;SHT30;54238;52.278;21.056;2023-11-19T16:10:13;2.38;81.60
67354;SHT30;54238;52.278;21.056;2023-11-19T16:12:46;2.38;81.65
67354;SHT30;54238;52.278;21.056;2023-11-19T16:15:14;2.36;81.74
67354;SHT30;54238;52.278;21.056;2023-11-19T16:17:43;2.37;81.84
67354;SHT30;54238;52.278;21.056;2023-11-19T16:20:20;2.35;81.81